sensor_id;sensor_type;location;lat;lon;timestamp;noise_LAeq;noise_LA_min;noise_LA_max;noise_LA01;noise_LA95
74414;Laerm;62848;55.798;37.608;2022-09-09T00:02:22;45.97;38.11;58.34;;
74414;Laerm;62848;55.798;37.608;2022-09-09T00:07:38;46.50;37.99;56.30;;
74414;Laerm;62848;55.798;37.608;2022-09-09T00:10:29;49.97;38.19;64.70;;
74414;Laerm;62848;55.798;37.608;2022-09-09T00:15:54;46.82;40.47;56.49;;
74414;Laerm;62848;55.798;37.608;2022-09-09T00:21:03;44.76;38.84;52.65;;
74414;Laerm;62848;55.798;37.608;2022-09-09T00:23:47;52.87;38.96;68.69;;
74414;Laerm;62848;55.798;37.608;2022-09-09T00:29:28;53.09;39.08;61.83;;
74414;Laerm;62848;55.798;37.608;2022-09-09T00:32:11;43.86;38.06;53.98;;
74414;Laerm;62848;55.798;37.608;2022-09-09T00:34:47;45.06;37.71;56.19;;
74414;Laerm;62848;55.798;37.608;2022-09-09T00:37:14;42.76;37.99;52.07;;
74414;Laerm;62848;55.798;37.608;2022-09-09T00:39:48;44.73;37.58;57.49;;
74414;Laerm;62848;55.798;37.608;2022-09-09T00:42:24;47.35;38.36;60.25;;
74414;Laerm;62848;55.798;37.608;2022-09-09T00:48:05;43.16;37.15;52.72;;
74414;Laerm;62848;55.798;37.608;2022-09-09T00:50:57;41.10;36.89;51.67;;
74414;Laerm;62848;55.798;37.608;2022-09-09T00:56:14;45.07;37.97;57.67;;
74414;Laerm;62848;55.798;37.608;2022-09-09T00:58:55;43.04;36.80;54.01;;
74414;Laerm;62848;55.798;37.608;2022-09-09T01:01:26;44.55;37.40;54.15;;
74414;Laerm;62848;55.798;37.608;2022-09-09T01:03:56;41.47;37.59;49.77;;
74414;Laerm;62848;55.798;37.608;2022-09-09T01:06:29;42.19;38.09;49.46;;
74414;Laerm;62848;55.798;37.608;2022-09-09T01:12:23;45.81;37.81;57.11;;
74414;Laerm;62848;55.798;37.608;2022-09-09T01:18:04;44.32;37.05;53.42;;
74414;Laerm;62848;55.798;37.608;2022-09-09T01:28:56;44.15;38.25;63.11;;
74414;Laerm;62848;55.798;37.608;2022-09-09T01:31:51;43.17;37.96;54.69;;
74414;Laerm;62848;55.798;37.608;2022-09-09T01:34:19;51.35;39.68;67.51;;
74414;Laerm;62848;55.798;37.608;2022-09-09T01:37:07;43.26;38.07;52.74;;
74414;Laerm;62848;55.798;37.608;2022-09-09T01:39:34;44.21;38.25;54.79;;
74414;Laerm;62848;55.798;37.608;2022-09-09T01:42:01;41.33;38.00;47.42;;
74414;Laerm;62848;55.798;37.608;2022-09-09T01:44:29;45.84;37.95;61.54;;
74414;Laerm;62848;55.798;37.608;2022-09-09T01:46:55;42.09;38.16;46.63;;
74414;Laerm;62848;55.798;37.608;2022-09-09T01:49:22;43.07;37.60;53.62;;
74414;Laerm;62848;55.798;37.608;2022-09-09T01:51:52;42.54;38.62;50.72;;
74414;Laerm;62848;55.798;37.608;2022-09-09T01:54:19;43.46;38.05;52.48;;
74414;Laerm;62848;55.798;37.608;2022-09-09T02:07:49;42.57;38.60;56.30;;
74414;Laerm;62848;55.798;37.608;2022-09-09T02:13:20;45.58;39.47;54.73;;
74414;Laerm;62848;55.798;37.608;2022-09-09T02:15:47;43.08;38.25;52.23;;
74414;Laerm;62848;55.798;37.608;2022-09-09T02:18:26;44.31;39.30;55.15;;
74414;Laerm;62848;55.798;37.608;2022-09-09T02:20:54;43.97;38.33;53.63;;
74414;Laerm;62848;55.798;37.608;2022-09-09T02:23:22;52.70;38.01;65.70;;
74414;Laerm;62848;55.798;37.608;2022-09-09T02:25:49;45.06;38.71;53.56;;
74414;Laerm;62848;55.798;37.608;2022-09-09T02:28:19;40.93;37.96;47.16;;
74414;Laerm;62848;55.798;37.608;2022-09-09T02:30:49;41.08;38.02;52.75;;
74414;Laerm;62848;55.798;37.608;2022-09-09T02:33:25;44.36;38.15;53.70;;
74414;Laerm;62848;55.798;37.608;2022-09-09T02:35:53;41.74;38.13;48.44;;
74414;Laerm;62848;55.798;37.608;2022-09-09T02:38:25;44.51;38.52;54.07;;
74414;Laerm;62848;55.798;37.608;2022-09-09T02:40:52;44.86;38.64;51.71;;
74414;Laerm;62848;55.798;37.608;2022-09-09T02:43:18;44.70;38.54;53.00;;
74414;Laerm;62848;55.798;37.608;2022-09-09T02:56:51;46.30;38.81;60.35;;
74414;Laerm;62848;55.798;37.608;2022-09-09T02:59:19;47.91;38.94;56.95;;
74414;Laerm;62848;55.798;37.608;2022-09-09T03:01:45;44.16;39.57;60.39;;
74414;Laerm;62848;55.798;37.608;2022-09-09T03:04:11;45.81;40.45;51.84;;
74414;Laerm;62848;55.798;37.608;2022-09-09T03:06:37;46.55;38.95;55.76;;
74414;Laerm;62848;55.798;37.608;2022-09-09T03:09:04;46.73;40.27;54.30;;
74414;Laerm;62848;55.798;37.608;2022-09-09T03:11:30;47.32;40.21;55.76;;
74414;Laerm;62848;55.798;37.608;2022-09-09T03:13:57;45.74;41.47;54.23;;
74414;Laerm;62848;55.798;37.608;2022-09-09T03:16:23;47.28;40.95;54.02;;
74414;Laerm;62848;55.798;37.608;2022-09-09T03:18:50;47.49;41.07;58.93;;
74414;Laerm;62848;55.798;37.608;2022-09-09T03:21:16;48.20;40.28;59.79;;
74414;Laerm;62848;55.798;37.608;2022-09-09T03:23:42;45.66;40.26;52.38;;
74414;Laerm;62848;55.798;37.608;2022-09-09T03:26:10;50.34;40.96;63.28;;
74414;Laerm;62848;55.798;37.608;2022-09-09T03:28:36;48.96;41.17;55.78;;
74414;Laerm;62848;55.798;37.608;2022-09-09T03:31:04;51.92;42.44;57.80;;
74414;Laerm;62848;55.798;37.608;2022-09-09T03:33:31;52.30;41.40;58.62;;
74414;Laerm;62848;55.798;37.608;2022-09-09T03:35:58;52.35;45.71;55.93;;
74414;Laerm;62848;55.798;37.608;2022-09-09T03:38:25;48.77;41.57;56.19;;
74414;Laerm;62848;55.798;37.608;2022-09-09T03:40:53;51.04;42.55;56.11;;
74414;Laerm;62848;55.798;37.608;2022-09-09T03:43:27;47.02;41.83;53.31;;
74414;Laerm;62848;55.798;37.608;2022-09-09T03:45:54;50.07;43.51;56.69;;
74414;Laerm;62848;55.798;37.608;2022-09-09T03:48:24;47.25;40.65;53.83;;
74414;Laerm;62848;55.798;37.608;2022-09-09T03:50:52;49.71;41.63;59.67;;
74414;Laerm;62848;55.798;37.608;2022-09-09T03:53:21;49.00;43.30;56.10;;
74414;Laerm;62848;55.798;37.608;2022-09-09T03:55:50;49.93;42.96;57.33;;
74414;Laerm;62848;55.798;37.608;2022-09-09T03:58:21;49.84;41.59;57.70;;
74414;Laerm;62848;55.798;37.608;2022-09-09T04:01:01;49.64;42.20;57.50;;
74414;Laerm;62848;55.798;37.608;2022-09-09T04:03:28;50.31;44.69;55.66;;
74414;Laerm;62848;55.798;37.608;2022-09-09T04:05:57;49.07;43.15;56.61;;
74414;Laerm;62848;55.798;37.608;2022-09-09T04:08:24;49.83;43.66;56.49;;
74414;Laerm;62848;55.798;37.608;2022-09-09T04:10:52;50.06;44.67;67.71;;
74414;Laerm;62848;55.798;37.608;2022-09-09T04:13:19;49.79;44.69;56.46;;
74414;Laerm;62848;55.798;37.608;2022-09-09T04:15:57;50.65;42.54;63.64;;
74414;Laerm;62848;55.798;37.608;2022-09-09T04:18:23;54.01;44.76;67.17;;
74414;Laerm;62848;55.798;37.608;2022-09-09T04:20:52;49.52;43.69;62.97;;
74414;Laerm;62848;55.798;37.608;2022-09-09T04:23:19;52.34;46.70;62.33;;
74414;Laerm;62848;55.798;37.608;2022-09-09T04:25:53;48.89;42.34;54.99;;
74414;Laerm;62848;55.798;37.608;2022-09-09T04:28:22;50.14;44.47;56.90;;
74414;Laerm;62848;55.798;37.608;2022-09-09T04:30:49;50.30;44.87;58.43;;
74414;Laerm;62848;55.798;37.608;2022-09-09T04:33:16;52.01;44.50;61.35;;
74414;Laerm;62848;55.798;37.608;2022-09-09T04:35:48;50.35;42.33;58.01;;
74414;Laerm;62848;55.798;37.608;2022-09-09T04:38:16;51.77;47.22;57.32;;
74414;Laerm;62848;55.798;37.608;2022-09-09T04:40:50;51.45;44.57;60.63;;
74414;Laerm;62848;55.798;37.608;2022-09-09T04:43:17;51.29;45.94;57.96;;
74414;Laerm;62848;55.798;37.608;2022-09-09T04:45:48;51.54;46.88;57.26;;
74414;Laerm;62848;55.798;37.608;2022-09-09T04:48:14;49.76;44.49;57.67;;
74414;Laerm;62848;55.798;37.608;2022-09-09T04:50:41;50.81;45.24;55.44;;
74414;Laerm;62848;55.798;37.608;2022-09-09T04:53:08;51.69;46.52;58.13;;
74414;Laerm;62848;55.798;37.608;2022-09-09T04:55:34;51.51;44.67;59.31;;
74414;Laerm;62848;55.798;37.608;2022-09-09T04:58:08;52.25;44.88;72.43;;
74414;Laerm;62848;55.798;37.608;2022-09-09T05:00:35;51.83;47.26;57.20;;
74414;Laerm;62848;55.798;37.608;2022-09-09T05:03:05;51.13;45.12;55.30;;
74414;Laerm;62848;55.798;37.608;2022-09-09T05:05:33;52.76;47.68;60.88;;
74414;Laerm;62848;55.798;37.608;2022-09-09T05:08:07;52.61;46.16;60.43;;
74414;Laerm;62848;55.798;37.608;2022-09-09T05:10:37;52.16;47.06;57.59;;
74414;Laerm;62848;55.798;37.608;2022-09-09T05:13:04;52.21;46.53;59.05;;
74414;Laerm;62848;55.798;37.608;2022-09-09T05:15:31;52.80;47.32;58.18;;
74414;Laerm;62848;55.798;37.608;2022-09-09T05:18:01;52.43;46.79;64.57;;
74414;Laerm;62848;55.798;37.608;2022-09-09T05:20:29;51.42;44.95;57.20;;
74414;Laerm;62848;55.798;37.608;2022-09-09T05:22:56;53.14;46.55;60.58;;
74414;Laerm;62848;55.798;37.608;2022-09-09T05:25:23;52.79;47.42;65.18;;
74414;Laerm;62848;55.798;37.608;2022-09-09T05:27:52;53.35;47.67;67.42;;
74414;Laerm;62848;55.798;37.608;2022-09-09T05:30:19;51.96;46.38;57.41;;
74414;Laerm;62848;55.798;37.608;2022-09-09T05:32:46;52.52;45.60;57.89;;
74414;Laerm;62848;55.798;37.608;2022-09-09T05:35:13;52.16;46.70;58.13;;
74414;Laerm;62848;55.798;37.608;2022-09-09T05:37:40;51.60;46.20;61.49;;
74414;Laerm;62848;55.798;37.608;2022-09-09T05:40:06;51.82;46.37;59.08;;
74414;Laerm;62848;55.798;37.608;2022-09-09T05:42:33;52.02;47.58;59.85;;
74414;Laerm;62848;55.798;37.608;2022-09-09T05:44:59;54.28;47.83;67.35;;
74414;Laerm;62848;55.798;37.608;2022-09-09T05:47:25;52.66;47.16;59.72;;
74414;Laerm;62848;55.798;37.608;2022-09-09T05:49:54;51.66;45.90;60.75;;
74414;Laerm;62848;55.798;37.608;2022-09-09T05:52:21;51.76;46.40;59.33;;
74414;Laerm;62848;55.798;37.608;2022-09-09T05:54:47;52.10;46.04;57.77;;
74414;Laerm;62848;55.798;37.608;2022-09-09T05:57:13;52.02;45.67;62.95;;
74414;Laerm;62848;55.798;37.608;2022-09-09T05:59:39;51.66;46.00;58.47;;
74414;Laerm;62848;55.798;37.608;2022-09-09T06:02:07;53.00;46.08;61.87;;
74414;Laerm;62848;55.798;37.608;2022-09-09T06:04:33;51.67;45.89;57.24;;
74414;Laerm;62848;55.798;37.608;2022-09-09T06:07:00;52.09;45.37;61.47;;
74414;Laerm;62848;55.798;37.608;2022-09-09T06:09:26;51.96;47.02;57.96;;
74414;Laerm;62848;55.798;37.608;2022-09-09T06:11:53;51.25;46.77;64.89;;
74414;Laerm;62848;55.798;37.608;2022-09-09T06:14:20;56.83;47.14;71.05;;
74414;Laerm;62848;55.798;37.608;2022-09-09T06:16:47;55.59;47.57;65.02;;
74414;Laerm;62848;55.798;37.608;2022-09-09T06:19:14;54.40;44.93;68.70;;
74414;Laerm;62848;55.798;37.608;2022-09-09T06:21:49;54.62;47.55;61.93;;
74414;Laerm;62848;55.798;37.608;2022-09-09T06:24:16;51.84;47.00;66.29;;
74414;Laerm;62848;55.798;37.608;2022-09-09T06:26:45;51.73;46.01;61.60;;
74414;Laerm;62848;55.798;37.608;2022-09-09T06:29:12;53.34;46.34;64.21;;
74414;Laerm;62848;55.798;37.608;2022-09-09T06:31:38;52.28;47.17;60.91;;
74414;Laerm;62848;55.798;37.608;2022-09-09T06:34:06;58.38;46.49;73.01;;
74414;Laerm;62848;55.798;37.608;2022-09-09T06:36:34;53.66;45.52;69.44;;
74414;Laerm;62848;55.798;37.608;2022-09-09T06:39:01;53.26;46.60;59.47;;
74414;Laerm;62848;55.798;37.608;2022-09-09T06:41:30;54.38;46.95;61.25;;
74414;Laerm;62848;55.798;37.608;2022-09-09T06:43:56;55.27;45.47;73.90;;
74414;Laerm;62848;55.798;37.608;2022-09-09T06:46:28;51.73;46.69;62.82;;
74414;Laerm;62848;55.798;37.608;2022-09-09T06:48:55;52.16;47.65;59.48;;
74414;Laerm;62848;55.798;37.608;2022-09-09T06:51:25;51.64;46.26;61.64;;
74414;Laerm;62848;55.798;37.608;2022-09-09T06:53:54;50.95;46.38;56.64;;
74414;Laerm;62848;55.798;37.608;2022-09-09T06:56:26;51.98;44.54;60.52;;
74414;Laerm;62848;55.798;37.608;2022-09-09T06:58:55;51.40;46.30;59.97;;
74414;Laerm;62848;55.798;37.608;2022-09-09T07:01:26;52.76;46.50;61.34;;
74414;Laerm;62848;55.798;37.608;2022-09-09T07:03:55;51.26;47.03;59.96;;
74414;Laerm;62848;55.798;37.608;2022-09-09T07:06:23;52.74;47.42;59.65;;
74414;Laerm;62848;55.798;37.608;2022-09-09T07:08:55;52.05;46.41;63.51;;
74414;Laerm;62848;55.798;37.608;2022-09-09T07:11:23;52.21;47.20;57.18;;
74414;Laerm;62848;55.798;37.608;2022-09-09T07:13:49;55.51;46.36;68.31;;
74414;Laerm;62848;55.798;37.608;2022-09-09T07:16:18;51.70;47.26;56.31;;
74414;Laerm;62848;55.798;37.608;2022-09-09T07:18:44;53.38;47.70;63.11;;
74414;Laerm;62848;55.798;37.608;2022-09-09T07:21:12;50.44;45.51;56.35;;
74414;Laerm;62848;55.798;37.608;2022-09-09T07:23:40;50.78;44.23;63.12;;
74414;Laerm;62848;55.798;37.608;2022-09-09T07:26:11;50.92;45.89;61.83;;
74414;Laerm;62848;55.798;37.608;2022-09-09T07:28:38;52.30;46.15;66.26;;
74414;Laerm;62848;55.798;37.608;2022-09-09T07:31:06;51.44;45.85;61.40;;
74414;Laerm;62848;55.798;37.608;2022-09-09T07:33:34;52.34;46.93;57.72;;
74414;Laerm;62848;55.798;37.608;2022-09-09T07:36:10;50.99;44.99;56.96;;
74414;Laerm;62848;55.798;37.608;2022-09-09T07:38:43;52.08;45.91;68.54;;
74414;Laerm;62848;55.798;37.608;2022-09-09T07:41:17;50.99;44.94;56.05;;
74414;Laerm;62848;55.798;37.608;2022-09-09T07:43:45;51.45;44.51;64.68;;
74414;Laerm;62848;55.798;37.608;2022-09-09T07:46:14;51.05;44.72;57.44;;
74414;Laerm;62848;55.798;37.608;2022-09-09T07:48:53;51.96;46.05;59.26;;
74414;Laerm;62848;55.798;37.608;2022-09-09T07:51:22;52.69;47.87;60.25;;
74414;Laerm;62848;55.798;37.608;2022-09-09T07:53:54;52.44;46.90;61.74;;
74414;Laerm;62848;55.798;37.608;2022-09-09T07:56:21;52.79;45.37;62.02;;
74414;Laerm;62848;55.798;37.608;2022-09-09T07:58:50;51.60;46.25;57.37;;
74414;Laerm;62848;55.798;37.608;2022-09-09T08:01:24;53.89;48.18;64.20;;
74414;Laerm;62848;55.798;37.608;2022-09-09T08:03:57;53.72;46.84;68.25;;
74414;Laerm;62848;55.798;37.608;2022-09-09T08:06:34;53.10;44.88;69.57;;
74414;Laerm;62848;55.798;37.608;2022-09-09T08:09:01;50.86;44.21;57.73;;
74414;Laerm;62848;55.798;37.608;2022-09-09T08:11:29;56.92;48.83;62.01;;
74414;Laerm;62848;55.798;37.608;2022-09-09T08:13:56;51.71;44.04;64.47;;
74414;Laerm;62848;55.798;37.608;2022-09-09T08:16:28;52.68;44.66;66.23;;
74414;Laerm;62848;55.798;37.608;2022-09-09T08:18:56;51.49;45.96;59.11;;
74414;Laerm;62848;55.798;37.608;2022-09-09T08:21:31;52.23;46.53;66.40;;
74414;Laerm;62848;55.798;37.608;2022-09-09T08:24:00;51.04;43.49;60.47;;
74414;Laerm;62848;55.798;37.608;2022-09-09T08:26:32;51.14;45.34;69.37;;
74414;Laerm;62848;55.798;37.608;2022-09-09T08:29:02;51.34;45.65;59.67;;
74414;Laerm;62848;55.798;37.608;2022-09-09T08:31:31;51.02;45.92;59.05;;
74414;Laerm;62848;55.798;37.608;2022-09-09T08:34:00;52.13;46.28;59.05;;
74414;Laerm;62848;55.798;37.608;2022-09-09T08:36:29;52.33;47.21;58.79;;
74414;Laerm;62848;55.798;37.608;2022-09-09T08:38:57;51.25;45.81;55.54;;
74414;Laerm;62848;55.798;37.608;2022-09-09T08:47:05;51.35;44.91;69.28;;
74414;Laerm;62848;55.798;37.608;2022-09-09T08:52:30;50.59;43.19;60.90;;
74414;Laerm;62848;55.798;37.608;2022-09-09T08:55:20;52.69;43.91;61.56;;
74414;Laerm;62848;55.798;37.608;2022-09-09T08:57:45;51.26;45.78;56.16;;
74414;Laerm;62848;55.798;37.608;2022-09-09T09:00:12;51.78;44.63;68.15;;
74414;Laerm;62848;55.798;37.608;2022-09-09T09:05:19;52.97;47.10;59.99;;
74414;Laerm;62848;55.798;37.608;2022-09-09T09:10:50;50.61;44.53;58.10;;
74414;Laerm;62848;55.798;37.608;2022-09-09T09:13:20;52.03;44.29;61.47;;
74414;Laerm;62848;55.798;37.608;2022-09-09T09:15:55;52.04;46.50;58.92;;
74414;Laerm;62848;55.798;37.608;2022-09-09T09:18:22;50.92;45.02;59.11;;
74414;Laerm;62848;55.798;37.608;2022-09-09T09:23:44;52.02;45.67;59.36;;
74414;Laerm;62848;55.798;37.608;2022-09-09T09:26:12;52.37;46.50;59.35;;
74414;Laerm;62848;55.798;37.608;2022-09-09T09:28:39;51.88;45.32;60.19;;
74414;Laerm;62848;55.798;37.608;2022-09-09T09:31:08;51.91;46.48;64.08;;
74414;Laerm;62848;55.798;37.608;2022-09-09T09:36:13;52.38;46.47;64.84;;
74414;Laerm;62848;55.798;37.608;2022-09-09T09:38:56;51.15;43.71;58.37;;
74414;Laerm;62848;55.798;37.608;2022-09-09T09:41:34;51.88;45.32;60.92;;
74414;Laerm;62848;55.798;37.608;2022-09-09T09:44:02;52.80;46.07;66.06;;
74414;Laerm;62848;55.798;37.608;2022-09-09T09:46:29;50.73;45.28;59.42;;
74414;Laerm;62848;55.798;37.608;2022-09-09T09:49:00;52.46;45.36;62.53;;
74414;Laerm;62848;55.798;37.608;2022-09-09T09:51:29;50.48;44.58;55.90;;
74414;Laerm;62848;55.798;37.608;2022-09-09T09:54:08;49.95;43.42;57.95;;
74414;Laerm;62848;55.798;37.608;2022-09-09T09:56:36;49.81;42.95;66.33;;
74414;Laerm;62848;55.798;37.608;2022-09-09T09:59:02;52.01;46.09;62.94;;
74414;Laerm;62848;55.798;37.608;2022-09-09T10:01:32;51.03;44.02;57.03;;
74414;Laerm;62848;55.798;37.608;2022-09-09T10:04:12;50.49;44.60;57.06;;
74414;Laerm;62848;55.798;37.608;2022-09-09T10:06:40;51.65;45.32;61.79;;
74414;Laerm;62848;55.798;37.608;2022-09-09T10:14:45;52.62;46.16;65.67;;
74414;Laerm;62848;55.798;37.608;2022-09-09T10:17:40;52.10;46.19;60.63;;
74414;Laerm;62848;55.798;37.608;2022-09-09T10:22:47;51.46;45.81;58.38;;
74414;Laerm;62848;55.798;37.608;2022-09-09T10:26:19;51.28;44.83;58.76;;
74414;Laerm;62848;55.798;37.608;2022-09-09T10:28:48;51.31;46.00;58.53;;
74414;Laerm;62848;55.798;37.608;2022-09-09T10:36:57;55.17;46.71;75.19;;
74414;Laerm;62848;55.798;37.608;2022-09-09T10:39:33;53.53;45.89;69.32;;
74414;Laerm;62848;55.798;37.608;2022-09-09T10:42:06;51.88;45.62;57.90;;
74414;Laerm;62848;55.798;37.608;2022-09-09T10:45:02;51.57;44.36;63.89;;
74414;Laerm;62848;55.798;37.608;2022-09-09T10:48:27;51.08;45.08;56.97;;
74414;Laerm;62848;55.798;37.608;2022-09-09T10:51:01;50.17;44.30;55.21;;
74414;Laerm;62848;55.798;37.608;2022-09-09T10:56:18;50.93;46.04;60.20;;
74414;Laerm;62848;55.798;37.608;2022-09-09T11:01:44;54.21;45.18;78.48;;
74414;Laerm;62848;55.798;37.608;2022-09-09T11:04:17;51.92;44.21;59.55;;
74414;Laerm;62848;55.798;37.608;2022-09-09T11:06:50;52.11;46.59;58.10;;
74414;Laerm;62848;55.798;37.608;2022-09-09T11:09:24;57.62;47.52;77.36;;
74414;Laerm;62848;55.798;37.608;2022-09-09T11:11:57;50.97;45.25;57.63;;
74414;Laerm;62848;55.798;37.608;2022-09-09T11:14:49;52.20;47.35;58.04;;
74414;Laerm;62848;55.798;37.608;2022-09-09T11:17:20;51.59;46.95;59.25;;
74414;Laerm;62848;55.798;37.608;2022-09-09T11:19:48;52.86;48.06;62.51;;
74414;Laerm;62848;55.798;37.608;2022-09-09T11:22:37;50.52;44.72;58.62;;
74414;Laerm;62848;55.798;37.608;2022-09-09T11:25:23;50.65;44.14;57.73;;
74414;Laerm;62848;55.798;37.608;2022-09-09T11:34:13;52.87;46.70;62.25;;
74414;Laerm;62848;55.798;37.608;2022-09-09T11:37:40;50.71;43.89;58.58;;
74414;Laerm;62848;55.798;37.608;2022-09-09T11:40:19;51.70;45.20;58.55;;
74414;Laerm;62848;55.798;37.608;2022-09-09T11:42:49;52.19;46.13;62.23;;
74414;Laerm;62848;55.798;37.608;2022-09-09T11:45:25;52.30;46.11;62.35;;
74414;Laerm;62848;55.798;37.608;2022-09-09T11:47:56;51.41;44.16;60.05;;
74414;Laerm;62848;55.798;37.608;2022-09-09T11:52:50;54.69;45.28;69.66;;
74414;Laerm;62848;55.798;37.608;2022-09-09T11:55:26;50.70;44.18;57.55;;
74414;Laerm;62848;55.798;37.608;2022-09-09T11:58:03;51.94;45.44;58.90;;
74414;Laerm;62848;55.798;37.608;2022-09-09T12:00:40;51.06;42.97;63.94;;
74414;Laerm;62848;55.798;37.608;2022-09-09T12:08:55;52.25;47.69;57.40;;
74414;Laerm;62848;55.798;37.608;2022-09-09T12:11:26;52.83;46.83;68.73;;
74414;Laerm;62848;55.798;37.608;2022-09-09T12:13:57;52.35;46.64;61.50;;
74414;Laerm;62848;55.798;37.608;2022-09-09T12:16:34;50.75;46.04;58.89;;
74414;Laerm;62848;55.798;37.608;2022-09-09T12:19:16;51.24;45.82;58.41;;
74414;Laerm;62848;55.798;37.608;2022-09-09T12:22:26;52.40;45.87;60.88;;
74414;Laerm;62848;55.798;37.608;2022-09-09T12:27:35;52.49;46.13;68.61;;
74414;Laerm;62848;55.798;37.608;2022-09-09T12:30:10;52.65;47.45;58.67;;
74414;Laerm;62848;55.798;37.608;2022-09-09T12:32:37;51.20;46.03;66.19;;
74414;Laerm;62848;55.798;37.608;2022-09-09T12:35:26;53.15;44.84;69.56;;
74414;Laerm;62848;55.798;37.608;2022-09-09T12:37:56;52.34;47.39;64.96;;
74414;Laerm;62848;55.798;37.608;2022-09-09T12:40:30;52.00;46.91;57.68;;
74414;Laerm;62848;55.798;37.608;2022-09-09T12:42:58;54.10;47.17;71.27;;
74414;Laerm;62848;55.798;37.608;2022-09-09T12:45:29;51.82;45.94;66.57;;
74414;Laerm;62848;55.798;37.608;2022-09-09T12:48:00;53.03;46.19;65.57;;
74414;Laerm;62848;55.798;37.608;2022-09-09T12:50:33;54.58;47.88;65.24;;
74414;Laerm;62848;55.798;37.608;2022-09-09T12:55:54;55.21;45.50;75.08;;
74414;Laerm;62848;55.798;37.608;2022-09-09T12:58:22;53.06;44.00;67.58;;
74414;Laerm;62848;55.798;37.608;2022-09-09T13:00:53;52.10;45.35;58.62;;
74414;Laerm;62848;55.798;37.608;2022-09-09T13:03:22;51.61;44.97;64.94;;
74414;Laerm;62848;55.798;37.608;2022-09-09T13:05:49;51.87;45.28;63.62;;
74414;Laerm;62848;55.798;37.608;2022-09-09T13:08:17;55.16;45.93;71.63;;
74414;Laerm;62848;55.798;37.608;2022-09-09T13:11:01;51.66;46.43;60.31;;
74414;Laerm;62848;55.798;37.608;2022-09-09T13:13:38;51.53;46.85;65.80;;
74414;Laerm;62848;55.798;37.608;2022-09-09T13:16:07;52.01;46.63;60.50;;
74414;Laerm;62848;55.798;37.608;2022-09-09T13:18:44;50.64;44.55;57.82;;
74414;Laerm;62848;55.798;37.608;2022-09-09T13:21:10;55.71;45.03;66.35;;
74414;Laerm;62848;55.798;37.608;2022-09-09T13:23:37;51.08;43.78;58.83;;
74414;Laerm;62848;55.798;37.608;2022-09-09T13:26:25;51.86;45.53;60.69;;
74414;Laerm;62848;55.798;37.608;2022-09-09T13:28:53;55.60;46.69;68.80;;
74414;Laerm;62848;55.798;37.608;2022-09-09T13:33:53;51.32;46.19;65.11;;
74414;Laerm;62848;55.798;37.608;2022-09-09T13:36:29;50.51;43.55;57.82;;
74414;Laerm;62848;55.798;37.608;2022-09-09T13:38:58;51.62;43.53;59.92;;
74414;Laerm;62848;55.798;37.608;2022-09-09T13:41:43;53.05;45.99;61.26;;
74414;Laerm;62848;55.798;37.608;2022-09-09T13:44:28;53.42;46.77;62.96;;
74414;Laerm;62848;55.798;37.608;2022-09-09T13:47:06;49.74;43.42;60.28;;
74414;Laerm;62848;55.798;37.608;2022-09-09T13:49:43;50.81;44.97;62.25;;
74414;Laerm;62848;55.798;37.608;2022-09-09T13:52:12;52.13;46.49;65.98;;
74414;Laerm;62848;55.798;37.608;2022-09-09T13:54:40;51.04;44.07;61.95;;
74414;Laerm;62848;55.798;37.608;2022-09-09T13:57:18;50.07;43.42;56.59;;
74414;Laerm;62848;55.798;37.608;2022-09-09T13:59:49;53.18;45.89;66.75;;
74414;Laerm;62848;55.798;37.608;2022-09-09T14:02:16;51.65;45.01;60.73;;
74414;Laerm;62848;55.798;37.608;2022-09-09T14:04:43;51.25;45.26;61.61;;
74414;Laerm;62848;55.798;37.608;2022-09-09T14:07:17;50.20;44.25;58.99;;
74414;Laerm;62848;55.798;37.608;2022-09-09T14:09:44;51.39;45.47;60.41;;
74414;Laerm;62848;55.798;37.608;2022-09-09T14:12:14;53.13;44.74;65.80;;
74414;Laerm;62848;55.798;37.608;2022-09-09T14:14:41;52.79;44.94;63.30;;
74414;Laerm;62848;55.798;37.608;2022-09-09T14:17:08;50.25;43.93;57.04;;
74414;Laerm;62848;55.798;37.608;2022-09-09T14:19:35;50.40;44.15;56.78;;
74414;Laerm;62848;55.798;37.608;2022-09-09T14:22:03;51.32;44.42;61.12;;
74414;Laerm;62848;55.798;37.608;2022-09-09T14:24:29;51.00;46.21;56.79;;
74414;Laerm;62848;55.798;37.608;2022-09-09T14:26:56;51.21;44.11;58.77;;
74414;Laerm;62848;55.798;37.608;2022-09-09T14:29:22;50.09;43.87;56.01;;
74414;Laerm;62848;55.798;37.608;2022-09-09T14:31:48;50.38;45.10;56.70;;
74414;Laerm;62848;55.798;37.608;2022-09-09T14:34:15;51.48;44.08;62.11;;
74414;Laerm;62848;55.798;37.608;2022-09-09T14:36:41;49.89;42.23;58.09;;
74414;Laerm;62848;55.798;37.608;2022-09-09T14:39:08;50.07;43.37;56.64;;
74414;Laerm;62848;55.798;37.608;2022-09-09T14:41:34;50.17;44.40;60.58;;
74414;Laerm;62848;55.798;37.608;2022-09-09T14:44:00;49.69;45.16;55.93;;
74414;Laerm;62848;55.798;37.608;2022-09-09T14:46:27;50.35;43.81;55.75;;
74414;Laerm;62848;55.798;37.608;2022-09-09T14:48:53;51.42;45.83;62.21;;
74414;Laerm;62848;55.798;37.608;2022-09-09T14:51:22;50.37;44.91;56.13;;
74414;Laerm;62848;55.798;37.608;2022-09-09T14:53:51;50.66;44.02;60.42;;
74414;Laerm;62848;55.798;37.608;2022-09-09T14:56:20;50.01;43.59;58.94;;
74414;Laerm;62848;55.798;37.608;2022-09-09T14:58:48;51.31;46.20;59.93;;
74414;Laerm;62848;55.798;37.608;2022-09-09T15:01:17;52.54;44.75;65.29;;
74414;Laerm;62848;55.798;37.608;2022-09-09T15:03:49;50.06;44.80;58.92;;
74414;Laerm;62848;55.798;37.608;2022-09-09T15:06:16;50.55;43.88;63.70;;
74414;Laerm;62848;55.798;37.608;2022-09-09T15:08:44;50.64;44.11;56.66;;
74414;Laerm;62848;55.798;37.608;2022-09-09T15:11:12;51.37;45.47;65.01;;
74414;Laerm;62848;55.798;37.608;2022-09-09T15:13:40;53.05;46.28;62.62;;
74414;Laerm;62848;55.798;37.608;2022-09-09T15:16:12;53.24;45.85;69.97;;
74414;Laerm;62848;55.798;37.608;2022-09-09T15:18:39;54.97;46.93;67.44;;
74414;Laerm;62848;55.798;37.608;2022-09-09T15:21:16;51.79;45.14;59.14;;
74414;Laerm;62848;55.798;37.608;2022-09-09T15:23:43;50.89;43.86;57.64;;
74414;Laerm;62848;55.798;37.608;2022-09-09T15:26:10;54.93;46.16;73.45;;
74414;Laerm;62848;55.798;37.608;2022-09-09T15:28:38;52.42;47.38;65.65;;
74414;Laerm;62848;55.798;37.608;2022-09-09T15:38:43;51.63;45.64;59.44;;
74414;Laerm;62848;55.798;37.608;2022-09-09T15:41:10;52.01;45.80;61.48;;
74414;Laerm;62848;55.798;37.608;2022-09-09T15:43:37;51.17;44.33;56.86;;
74414;Laerm;62848;55.798;37.608;2022-09-09T15:46:24;51.87;47.29;59.18;;
74414;Laerm;62848;55.798;37.608;2022-09-09T15:49:02;50.16;44.97;56.02;;
74414;Laerm;62848;55.798;37.608;2022-09-09T15:51:29;50.64;43.61;59.02;;
74414;Laerm;62848;55.798;37.608;2022-09-09T15:53:57;50.87;42.82;60.59;;
74414;Laerm;62848;55.798;37.608;2022-09-09T15:56:25;51.34;44.83;58.60;;
74414;Laerm;62848;55.798;37.608;2022-09-09T15:58:54;51.49;46.00;62.41;;
74414;Laerm;62848;55.798;37.608;2022-09-09T16:01:21;51.30;45.27;61.16;;